Time;durP1;ratioP1;P1;durP2;ratioP2;P2;SDS_P1;SDS_P2;PMS_P1;PMS_P2;Temp;Humidity;BMP_temperature;BMP_pressure;BME280_temperature;BME280_humidity;BME280_pressure;Samples;Min_cycle;Max_cycle;Signal;HPM_P1;HPM_P2
2022/04/30 00:02:01;;;;;;;;;;;;;;;;;;5007755;28;19917;-70
2022/04/30 00:04:27;;;;;;;;;;;;;;;;;;5012552;28;20743;-70
2022/04/30 00:06:52;;;;;;;;;;;;;;;;;;5007984;28;20073;-70
2022/04/30 00:09:18;;;;;;;;;;;;;;;;;;5009901;28;19944;-69
2022/04/30 00:11:43;;;;;;;;;;;;;;;;;;4996310;28;19925;-71
2022/04/30 00:14:09;;;;;;;;;;;;;;;;;;5011941;28;19917;-70
2022/04/30 00:16:35;;;;;;;;;;;;;;;;;;5007557;28;19934;-69
2022/04/30 00:19:01;;;;;;;;;;;;;;;;;;5009602;28;20528;-70
2022/04/30 00:21:26;;;;;;;;;;;;;;;;;;5005813;28;20453;-70
2022/04/30 00:23:52;;;;;;;;;;;;;;;;;;5008315;28;19924;-70
2022/04/30 00:26:18;;;;;;;;;;;;;;;;;;5007966;28;19917;-73
2022/04/30 00:28:44;;;;;;;;;;;;;;;;;;4992086;28;19918;-70
2022/04/30 00:31:10;;;;;;;;;;;;;;;;;;5003869;28;19997;-71
2022/04/30 00:33:36;;;;;;;;;;;;;;;;;;5008757;28;20312;-70
2022/04/30 00:36:02;;;;;;;;;;;;;;;;;;5004293;28;19918;-70
2022/04/30 00:38:27;;;;;;;;;;;;;;;;;;4990289;28;19925;-70
2022/04/30 00:40:53;;;;;;;;;;;;;;;;;;5005621;28;19918;-70
2022/04/30 00:43:18;;;;;;;;;;;;;;;;;;5005243;28;19988;-71
2022/04/30 00:45:45;;;;;;;;;;;;;;;;;;5006916;28;19924;-70
2022/04/30 00:48:10;;;;;;;;;;;;;;;;;;5004306;28;19976;-70
2022/04/30 00:50:36;;;;;;;;;;;;;;;;;;5001721;28;19923;-71
2022/04/30 00:53:03;;;;;;;;;;;;;;;;;;5004880;28;20430;-70
2022/04/30 00:55:30;;;;;;;;;;;;;;;;;;5003288;28;19967;-70
2022/04/30 00:57:58;;;;;;;;;;;;;;;;;;5007019;28;19922;-71
2022/04/30 01:00:26;;;;;;;;;;;;;;;;;;5006295;28;19971;-71
2022/04/30 01:03:02;;;;;;;;;;;;;;;;;;5003141;28;19924;-71
2022/04/30 01:05:44;;;;;;;;;;;;;;;;;;5004916;28;19924;-71
2022/04/30 01:08:10;;;;;;;;;;;;;;;;;;5006274;28;19921;-71
2022/04/30 01:10:36;;;;;;;;;;;;;;;;;;4990220;28;20356;-71
2022/04/30 01:13:02;;;;;;;;;;;;;;;;;;4988305;28;19921;-71
2022/04/30 01:15:28;;;;;;;;;;;;;;;;;;5007029;28;19940;-71
2022/04/30 01:17:54;;;;;;;;;;;;;;;;;;4996710;28;20380;-71
2022/04/30 01:20:19;;;;;;;;;;;;;;;;;;5004042;28;19937;-71
2022/04/30 01:22:52;;;;;;;;;;;;;;;;;;5007495;28;19937;-71
2022/04/30 01:25:19;;;;;;;;;;;;;;;;;;5006065;28;19929;-71
2022/04/30 01:27:44;;;;;;;;;;;;;;;;;;5002849;28;20347;-71
2022/04/30 01:30:11;;;;;;;;;;;;;;;;;;5003422;28;19922;-71
2022/04/30 01:38:06;;;;;;;;;;;;;;;;;;5004421;28;20368;-71
2022/04/30 01:40:31;;;;;;;;;;;;;;;;;;5004531;28;19968;-71
2022/04/30 01:42:59;;;;;;;;;;;;;;;;;;5001698;28;19922;-70
2022/04/30 01:45:26;;;;;;;;;;;;;;;;;;5003331;28;19918;-71
2022/04/30 01:47:54;;;;;;;;;;;;;;;;;;5001505;28;20304;-69
2022/04/30 01:50:19;;;;;;;;;;;;;;;;;;4999355;28;19941;-71
2022/04/30 01:52:45;;;;;;;;;;;;;;;;;;5003919;28;19984;-71
2022/04/30 01:55:10;;;;;;;;;;;;;;;;;;5004200;28;19918;-71
2022/04/30 01:57:39;;;;;;;;;;;;;;;;;;5002079;28;19941;-71
2022/04/30 02:00:05;;;;;;;;;;;;;;;;;;4996473;28;19918;-71
2022/04/30 02:02:40;;;;;;;;;;;;;;;;;;4995248;28;20345;-71
2022/04/30 02:05:09;;;;;;;;;;;;;;;;;;5001420;28;19932;-71
2022/04/30 02:07:40;;;;;;;;;;;;;;;;;;5003372;28;19975;-70
2022/04/30 02:10:10;;;;;;;;;;;;;;;;;;5002524;28;20377;-71
2022/04/30 02:12:35;;;;;;;;;;;;;;;;;;4997210;28;19918;-71
2022/04/30 02:15:01;;;;;;;;;;;;;;;;;;5002959;28;19943;-71
2022/04/30 02:17:28;;;;;;;;;;;;;;;;;;5005694;28;19953;-70
2022/04/30 02:22:43;;;;;;;;;;;;;;;;;;5000016;28;19918;-70
2022/04/30 02:25:09;;;;;;;;;;;;;;;;;;5005432;28;20474;-70
2022/04/30 02:27:39;;;;;;;;;;;;;;;;;;4995742;28;20509;-70
2022/04/30 02:30:10;;;;;;;;;;;;;;;;;;4990102;28;19930;-70
2022/04/30 02:32:43;;;;;;;;;;;;;;;;;;5000145;28;19924;-70
2022/04/30 02:35:09;;;;;;;;;;;;;;;;;;5000427;28;19917;-70
2022/04/30 02:37:35;;;;;;;;;;;;;;;;;;5005322;28;19944;-70
2022/04/30 02:40:01;;;;;;;;;;;;;;;;;;5004059;28;19937;-70
2022/04/30 02:42:27;;;;;;;;;;;;;;;;;;5005601;28;19940;-70
2022/04/30 02:44:53;;;;;;;;;;;;;;;;;;5001448;28;20060;-70
2022/04/30 02:47:18;;;;;;;;;;;;;;;;;;5002972;28;20024;-70
2022/04/30 02:49:44;;;;;;;;;;;;;;;;;;5004611;28;20559;-70
2022/04/30 02:52:10;;;;;;;;;;;;;;;;;;5005131;28;19917;-70
2022/04/30 02:54:35;;;;;;;;;;;;;;;;;;5005365;28;19917;-70
2022/04/30 02:57:01;;;;;;;;;;;;;;;;;;4994720;28;20397;-70
2022/04/30 03:02:19;;;;;;;;;;;;;;;;;;4982394;28;20494;-70
2022/04/30 03:04:52;;;;;;;;;;;;;;;;;;4986953;28;19983;-70
2022/04/30 03:07:22;;;;;;;;;;;;;;;;;;5002386;28;19925;-70
2022/04/30 03:09:48;;;;;;;;;;;;;;;;;;4999396;28;20015;-70
2022/04/30 03:12:14;;;;;;;;;;;;;;;;;;4996076;28;19969;-70
2022/04/30 03:14:40;;;;;;;;;;;;;;;;;;5000488;28;19918;-71
2022/04/30 03:22:34;;;;;;;;;;;;;;;;;;5004744;28;19917;-71
2022/04/30 03:24:59;;;;;;;;;;;;;;;;;;5002666;28;19918;-70
2022/04/30 03:27:25;;;;;;;;;;;;;;;;;;4995371;28;19929;-70
2022/04/30 03:29:51;;;;;;;;;;;;;;;;;;5006619;28;19926;-70
2022/04/30 03:32:17;;;;;;;;;;;;;;;;;;5010845;28;19963;-71
2022/04/30 03:34:42;;;;;;;;;;;;;;;;;;5003829;28;19918;-70
2022/04/30 03:37:08;;;;;;;;;;;;;;;;;;5014238;28;19921;-71
2022/04/30 03:39:33;;;;;;;;;;;;;;;;;;5010577;28;19918;-71
2022/04/30 03:41:59;;;;;;;;;;;;;;;;;;5016068;28;20637;-71
2022/04/30 03:44:26;;;;;;;;;;;;;;;;;;5014627;28;19917;-71
2022/04/30 03:46:51;;;;;;;;;;;;;;;;;;5008161;28;19922;-71
2022/04/30 03:49:17;;;;;;;;;;;;;;;;;;5005023;28;19928;-71
2022/04/30 03:51:42;;;;;;;;;;;;;;;;;;4987741;28;19965;-69
2022/04/30 03:54:08;;;;;;;;;;;;;;;;;;5003129;28;19975;-69
2022/04/30 03:56:33;;;;;;;;;;;;;;;;;;4999247;28;20556;-69
2022/04/30 03:58:59;;;;;;;;;;;;;;;;;;5003648;28;20153;-69
2022/04/30 04:01:24;;;;;;;;;;;;;;;;;;5000447;28;19918;-69
2022/04/30 04:03:50;;;;;;;;;;;;;;;;;;4998876;28;19917;-69
2022/04/30 04:06:19;;;;;;;;;;;;;;;;;;4999509;28;20368;-69
2022/04/30 04:08:49;;;;;;;;;;;;;;;;;;4994781;28;20016;-69
2022/04/30 04:11:15;;;;;;;;;;;;;;;;;;5000849;28;19922;-69
2022/04/30 04:19:09;;;;;;;;;;;;;;;;;;4993810;28;19924;-69
2022/04/30 04:21:34;;;;;;;;;;;;;;;;;;5003527;28;19917;-69
2022/04/30 04:26:44;;;;;;;;;;;;;;;;;;5003170;28;19921;-69
2022/04/30 04:29:10;;;;;;;;;;;;;;;;;;5011265;28;19924;-69
2022/04/30 04:31:36;;;;;;;;;;;;;;;;;;5002525;28;19918;-69
2022/04/30 04:34:01;;;;;;;;;;;;;;;;;;4998700;28;19926;-69
2022/04/30 04:36:27;;;;;;;;;;;;;;;;;;5001417;28;19956;-69
2022/04/30 04:38:52;;;;;;;;;;;;;;;;;;4986411;28;20344;-69
2022/04/30 04:41:18;;;;;;;;;;;;;;;;;;5004726;28;20464;-69
2022/04/30 04:43:43;;;;;;;;;;;;;;;;;;5007312;28;19929;-69
2022/04/30 04:46:09;;;;;;;;;;;;;;;;;;4999506;28;19996;-68
2022/04/30 04:48:36;;;;;;;;;;;;;;;;;;5008885;28;19925;-69
2022/04/30 04:51:01;;;;;;;;;;;;;;;;;;5005288;28;19917;-69
2022/04/30 04:53:27;;;;;;;;;;;;;;;;;;5009858;28;19917;-68
2022/04/30 04:55:52;;;;;;;;;;;;;;;;;;5003254;28;19918;-68
2022/04/30 04:58:18;;;;;;;;;;;;;;;;;;4990212;28;20393;-69
2022/04/30 05:00:43;;;;;;;;;;;;;;;;;;5006983;28;20361;-69
2022/04/30 05:03:09;;;;;;;;;;;;;;;;;;5008751;28;20356;-69
2022/04/30 05:05:35;;;;;;;;;;;;;;;;;;5002012;28;19975;-69
2022/04/30 05:08:01;;;;;;;;;;;;;;;;;;5006580;28;20397;-69
2022/04/30 05:10:27;;;;;;;;;;;;;;;;;;5007483;28;19924;-69
2022/04/30 05:12:52;;;;;;;;;;;;;;;;;;4994920;28;19924;-69
2022/04/30 05:15:18;;;;;;;;;;;;;;;;;;5001208;28;19932;-69
2022/04/30 05:17:43;;;;;;;;;;;;;;;;;;5005129;28;19917;-68
2022/04/30 05:20:09;;;;;;;;;;;;;;;;;;5007315;28;19993;-69
2022/04/30 05:22:34;;;;;;;;;;;;;;;;;;5011007;28;19933;-67
2022/04/30 05:24:59;;;;;;;;;;;;;;;;;;5002879;28;20016;-69
2022/04/30 05:27:25;;;;;;;;;;;;;;;;;;4999199;28;19926;-69
2022/04/30 05:29:50;;;;;;;;;;;;;;;;;;5005275;28;19940;-69
2022/04/30 05:32:16;;;;;;;;;;;;;;;;;;5003821;28;19964;-69
2022/04/30 05:34:42;;;;;;;;;;;;;;;;;;5005208;28;20008;-69
2022/04/30 05:37:07;;;;;;;;;;;;;;;;;;4995722;28;20405;-68
2022/04/30 05:39:32;;;;;;;;;;;;;;;;;;5002747;28;19921;-70
2022/04/30 05:41:58;;;;;;;;;;;;;;;;;;5005953;28;20396;-69
2022/04/30 05:44:23;;;;;;;;;;;;;;;;;;5004670;28;19924;-69
2022/04/30 05:46:49;;;;;;;;;;;;;;;;;;5003072;28;19921;-70
2022/04/30 05:49:15;;;;;;;;;;;;;;;;;;5004055;28;19917;-69
2022/04/30 05:51:40;;;;;;;;;;;;;;;;;;5006884;28;19918;-69
2022/04/30 05:54:07;;;;;;;;;;;;;;;;;;5006597;28;19940;-69
2022/04/30 05:56:33;;;;;;;;;;;;;;;;;;5006509;28;19923;-69
2022/04/30 05:58:58;;;;;;;;;;;;;;;;;;5002815;28;19921;-69
2022/04/30 06:01:24;;;;;;;;;;;;;;;;;;5004456;28;19918;-68
2022/04/30 06:03:49;;;;;;;;;;;;;;;;;;5005232;28;20311;-68
2022/04/30 06:06:15;;;;;;;;;;;;;;;;;;5003321;28;20373;-68
2022/04/30 06:08:40;;;;;;;;;;;;;;;;;;4997351;28;19922;-68
2022/04/30 06:11:06;;;;;;;;;;;;;;;;;;5003322;28;20480;-68
2022/04/30 06:13:31;;;;;;;;;;;;;;;;;;4996769;28;19922;-69
2022/04/30 06:15:57;;;;;;;;;;;;;;;;;;4999475;28;19925;-68
2022/04/30 06:18:22;;;;;;;;;;;;;;;;;;4997319;28;20626;-68
2022/04/30 06:20:48;;;;;;;;;;;;;;;;;;5001079;28;20396;-68
2022/04/30 06:23:15;;;;;;;;;;;;;;;;;;4998786;28;19964;-69
2022/04/30 06:25:41;;;;;;;;;;;;;;;;;;5000212;28;20381;-69
2022/04/30 06:28:08;;;;;;;;;;;;;;;;;;5002083;28;19921;-68
2022/04/30 06:30:35;;;;;;;;;;;;;;;;;;4998633;28;19917;-69
2022/04/30 06:33:01;;;;;;;;;;;;;;;;;;4982649;28;20045;-68
2022/04/30 06:35:26;;;;;;;;;;;;;;;;;;4998170;28;20024;-69
2022/04/30 06:37:52;;;;;;;;;;;;;;;;;;4996435;28;19924;-69
2022/04/30 06:40:17;;;;;;;;;;;;;;;;;;4977472;28;19925;-68
2022/04/30 06:42:46;;;;;;;;;;;;;;;;;;4999435;28;19918;-68
2022/04/30 06:45:12;;;;;;;;;;;;;;;;;;4999622;28;19929;-68
2022/04/30 06:47:39;;;;;;;;;;;;;;;;;;4998254;28;20426;-68
2022/04/30 06:50:05;;;;;;;;;;;;;;;;;;4997106;28;19917;-68
2022/04/30 06:52:31;;;;;;;;;;;;;;;;;;5003060;28;20005;-69
2022/04/30 06:57:44;;;;;;;;;;;;;;;;;;4997718;28;19968;-69
2022/04/30 07:02:57;;;;;;;;;;;;;;;;;;4997574;28;20615;-68
2022/04/30 07:05:22;;;;;;;;;;;;;;;;;;4985138;28;19918;-68
2022/04/30 07:07:48;;;;;;;;;;;;;;;;;;5005174;28;19991;-68
2022/04/30 07:10:14;;;;;;;;;;;;;;;;;;5005665;28;19918;-69
2022/04/30 07:12:39;;;;;;;;;;;;;;;;;;4997352;28;20286;-68
2022/04/30 07:15:05;;;;;;;;;;;;;;;;;;5001573;28;20009;-69
2022/04/30 07:17:30;;;;;;;;;;;;;;;;;;4999087;28;19952;-68
2022/04/30 07:19:56;;;;;;;;;;;;;;;;;;4999709;28;19928;-69
2022/04/30 07:22:21;;;;;;;;;;;;;;;;;;5008555;28;20396;-69
2022/04/30 07:24:47;;;;;;;;;;;;;;;;;;5002377;28;19932;-69
2022/04/30 07:27:12;;;;;;;;;;;;;;;;;;5000253;28;19921;-68
2022/04/30 07:29:38;;;;;;;;;;;;;;;;;;4997675;28;19922;-68
2022/04/30 07:32:07;;;;;;;;;;;;;;;;;;4995668;28;19917;-69
2022/04/30 07:34:33;;;;;;;;;;;;;;;;;;5005871;28;19917;-68
2022/04/30 07:36:59;;;;;;;;;;;;;;;;;;5001170;28;19918;-69
2022/04/30 07:39:24;;;;;;;;;;;;;;;;;;5002525;28;20020;-69
2022/04/30 07:41:52;;;;;;;;;;;;;;;;;;4998128;28;20385;-68
2022/04/30 07:44:18;;;;;;;;;;;;;;;;;;4998181;28;20000;-68
2022/04/30 07:46:44;;;;;;;;;;;;;;;;;;5005258;28;20055;-69
2022/04/30 07:49:09;;;;;;;;;;;;;;;;;;4992680;28;19917;-68
2022/04/30 07:51:42;;;;;;;;;;;;;;;;;;5000401;28;19925;-68
2022/04/30 07:54:08;;;;;;;;;;;;;;;;;;5004413;28;19928;-68
2022/04/30 07:56:33;;;;;;;;;;;;;;;;;;4989358;28;19922;-68
2022/04/30 07:58:59;;;;;;;;;;;;;;;;;;5001161;28;19925;-69
2022/04/30 08:01:24;;;;;;;;;;;;;;;;;;5000146;28;20057;-69
2022/04/30 08:03:49;;;;;;;;;;;;;;;;;;5003031;28;19918;-69
2022/04/30 08:06:15;;;;;;;;;;;;;;;;;;5007318;28;20412;-69
2022/04/30 08:08:42;;;;;;;;;;;;;;;;;;5006660;28;19922;-69
2022/04/30 08:11:07;;;;;;;;;;;;;;;;;;5007104;28;19924;-69
2022/04/30 08:13:33;;;;;;;;;;;;;;;;;;5007719;28;19921;-69
2022/04/30 08:15:58;;;;;;;;;;;;;;;;;;5007177;28;19964;-69
2022/04/30 08:18:27;;;;;;;;;;;;;;;;;;5001335;28;19972;-68
2022/04/30 08:20:53;;;;;;;;;;;;;;;;;;5005649;28;19924;-69
2022/04/30 08:23:18;;;;;;;;;;;;;;;;;;5003324;28;19921;-69
2022/04/30 08:25:44;;;;;;;;;;;;;;;;;;5008526;28;20396;-69
2022/04/30 08:28:10;;;;;;;;;;;;;;;;;;5003828;28;19929;-69
2022/04/30 08:30:35;;;;;;;;;;;;;;;;;;5007975;28;19917;-69
2022/04/30 08:33:01;;;;;;;;;;;;;;;;;;5007624;28;20396;-69
2022/04/30 08:35:26;;;;;;;;;;;;;;;;;;5002461;28;19972;-69
2022/04/30 08:37:52;;;;;;;;;;;;;;;;;;5009536;28;19975;-69
2022/04/30 08:40:18;;;;;;;;;;;;;;;;;;5004678;28;19925;-69
2022/04/30 08:42:43;;;;;;;;;;;;;;;;;;4999005;28;20348;-69
2022/04/30 08:45:09;;;;;;;;;;;;;;;;;;4999019;28;19917;-70
2022/04/30 08:47:42;;;;;;;;;;;;;;;;;;4979917;28;19940;-69
2022/04/30 08:50:09;;;;;;;;;;;;;;;;;;5003420;28;20281;-69
2022/04/30 08:52:34;;;;;;;;;;;;;;;;;;5005561;28;19987;-70
2022/04/30 08:55:00;;;;;;;;;;;;;;;;;;5002376;28;19921;-69
2022/04/30 08:57:25;;;;;;;;;;;;;;;;;;4996021;28;20355;-70
2022/04/30 08:59:51;;;;;;;;;;;;;;;;;;5004948;28;19924;-70
2022/04/30 09:02:17;;;;;;;;;;;;;;;;;;5000578;28;20004;-70
2022/04/30 09:04:43;;;;;;;;;;;;;;;;;;4998997;28;20005;-69
2022/04/30 09:07:13;;;;;;;;;;;;;;;;;;5006054;28;19972;-69
2022/04/30 09:09:39;;;;;;;;;;;;;;;;;;5004767;28;19921;-69
2022/04/30 09:12:08;;;;;;;;;;;;;;;;;;4998889;28;19976;-69
2022/04/30 09:14:34;;;;;;;;;;;;;;;;;;4998722;28;19941;-69
2022/04/30 09:17:03;;;;;;;;;;;;;;;;;;5003685;28;19925;-69
2022/04/30 09:19:29;;;;;;;;;;;;;;;;;;5003722;28;19926;-69
2022/04/30 09:21:55;;;;;;;;;;;;;;;;;;5006080;28;19921;-69
2022/04/30 09:24:20;;;;;;;;;;;;;;;;;;5004217;28;19932;-69
2022/04/30 09:26:46;;;;;;;;;;;;;;;;;;5003636;28;19991;-69
2022/04/30 09:29:21;;;;;;;;;;;;;;;;;;4998483;28;19917;-69
2022/04/30 09:31:53;;;;;;;;;;;;;;;;;;5000701;28;20032;-69
2022/04/30 09:39:49;;;;;;;;;;;;;;;;;;5004661;28;19921;-69
2022/04/30 09:42:15;;;;;;;;;;;;;;;;;;5002117;28;20369;-69
2022/04/30 09:44:40;;;;;;;;;;;;;;;;;;5006372;28;19926;-69
2022/04/30 09:47:06;;;;;;;;;;;;;;;;;;5007964;28;19922;-70
2022/04/30 09:55:01;;;;;;;;;;;;;;;;;;5008934;28;19917;-70
2022/04/30 09:57:29;;;;;;;;;;;;;;;;;;5005780;28;19917;-69
2022/04/30 09:59:56;;;;;;;;;;;;;;;;;;4994809;28;21297;-69
2022/04/30 10:02:23;;;;;;;;;;;;;;;;;;5003311;28;19956;-70
2022/04/30 10:04:48;;;;;;;;;;;;;;;;;;4998083;28;20427;-70
2022/04/30 10:07:18;;;;;;;;;;;;;;;;;;5008414;28;19948;-69
2022/04/30 10:09:58;;;;;;;;;;;;;;;;;;4985245;28;20411;-70
2022/04/30 10:12:37;;;;;;;;;;;;;;;;;;5004344;28;20337;-69
2022/04/30 10:15:11;;;;;;;;;;;;;;;;;;4998711;28;19917;-69
2022/04/30 10:17:40;;;;;;;;;;;;;;;;;;4999875;28;19932;-70
2022/04/30 10:20:13;;;;;;;;;;;;;;;;;;5005072;28;19922;-70
2022/04/30 10:22:48;;;;;;;;;;;;;;;;;;5003164;28;19929;-70
2022/04/30 10:25:13;;;;;;;;;;;;;;;;;;5002597;28;20008;-70
2022/04/30 10:27:47;;;;;;;;;;;;;;;;;;5001726;28;20005;-69
2022/04/30 10:30:18;;;;;;;;;;;;;;;;;;5007203;28;19917;-70
2022/04/30 10:32:53;;;;;;;;;;;;;;;;;;5007561;28;20501;-69
2022/04/30 10:35:27;;;;;;;;;;;;;;;;;;4996336;28;19928;-70
2022/04/30 10:37:52;;;;;;;;;;;;;;;;;;5000749;28;20303;-70
2022/04/30 10:40:18;;;;;;;;;;;;;;;;;;4998940;28;19921;-70
2022/04/30 10:42:44;;;;;;;;;;;;;;;;;;5003983;28;19948;-70
2022/04/30 10:45:15;;;;;;;;;;;;;;;;;;5003472;28;19921;-70
2022/04/30 10:47:53;;;;;;;;;;;;;;;;;;5002054;28;19949;-70
2022/04/30 10:50:19;;;;;;;;;;;;;;;;;;5002058;28;19921;-70
2022/04/30 10:52:47;;;;;;;;;;;;;;;;;;5001827;28;20400;-70
2022/04/30 10:55:12;;;;;;;;;;;;;;;;;;4987708;28;19917;-70
2022/04/30 10:57:41;;;;;;;;;;;;;;;;;;4990169;28;19944;-69
2022/04/30 11:00:07;;;;;;;;;;;;;;;;;;5008118;28;19918;-70
2022/04/30 11:02:32;;;;;;;;;;;;;;;;;;4999030;28;19963;-70
2022/04/30 11:04:58;;;;;;;;;;;;;;;;;;5001898;28;19974;-69
2022/04/30 11:07:28;;;;;;;;;;;;;;;;;;5004430;28;19972;-69
2022/04/30 11:09:53;;;;;;;;;;;;;;;;;;5004034;28;19968;-69
2022/04/30 11:12:19;;;;;;;;;;;;;;;;;;5000837;28;19949;-69
2022/04/30 11:14:45;;;;;;;;;;;;;;;;;;4999270;28;19917;-70
2022/04/30 11:17:10;;;;;;;;;;;;;;;;;;4997470;28;20381;-70
2022/04/30 11:19:39;;;;;;;;;;;;;;;;;;5000477;28;19917;-70
2022/04/30 11:22:07;;;;;;;;;;;;;;;;;;5000852;28;19987;-70
2022/04/30 11:24:32;;;;;;;;;;;;;;;;;;5006727;28;19918;-70
2022/04/30 11:26:59;;;;;;;;;;;;;;;;;;5003782;28;19929;-69
2022/04/30 11:29:24;;;;;;;;;;;;;;;;;;5006559;28;19918;-70
2022/04/30 11:31:53;;;;;;;;;;;;;;;;;;5003253;28;19917;-69
2022/04/30 11:34:20;;;;;;;;;;;;;;;;;;5003152;28;20391;-69
2022/04/30 11:36:52;;;;;;;;;;;;;;;;;;5000437;28;19929;-69
2022/04/30 11:39:18;;;;;;;;;;;;;;;;;;5004298;28;19925;-70
2022/04/30 11:41:45;;;;;;;;;;;;;;;;;;4985421;28;19956;-70
2022/04/30 11:44:14;;;;;;;;;;;;;;;;;;4991762;28;20008;-69
2022/04/30 11:46:41;;;;;;;;;;;;;;;;;;5009120;28;20347;-69
2022/04/30 11:49:07;;;;;;;;;;;;;;;;;;5003027;28;19921;-70
2022/04/30 11:51:33;;;;;;;;;;;;;;;;;;5008726;28;19918;-69
2022/04/30 11:54:00;;;;;;;;;;;;;;;;;;5005446;28;19980;-70
2022/04/30 11:56:25;;;;;;;;;;;;;;;;;;4999328;28;20012;-69
2022/04/30 11:58:51;;;;;;;;;;;;;;;;;;4984002;28;20456;-69
2022/04/30 12:01:20;;;;;;;;;;;;;;;;;;4999584;28;19917;-70
2022/04/30 12:03:45;;;;;;;;;;;;;;;;;;4999640;28;19921;-70
2022/04/30 12:06:11;;;;;;;;;;;;;;;;;;5001991;28;19918;-70
2022/04/30 12:08:36;;;;;;;;;;;;;;;;;;5003004;28;19984;-70
2022/04/30 12:11:02;;;;;;;;;;;;;;;;;;5003423;28;20426;-70
2022/04/30 12:13:28;;;;;;;;;;;;;;;;;;5006602;28;19917;-70
2022/04/30 12:16:04;;;;;;;;;;;;;;;;;;5002231;28;20020;-70
2022/04/30 12:26:53;;;;;;;;;;;;;;;;;;5007589;28;19940;-70
2022/04/30 12:29:22;;;;;;;;;;;;;;;;;;5002159;28;19917;-70
2022/04/30 12:31:49;;;;;;;;;;;;;;;;;;5004528;28;19921;-70
2022/04/30 12:34:21;;;;;;;;;;;;;;;;;;5005593;28;19917;-70
2022/04/30 12:36:52;;;;;;;;;;;;;;;;;;4995756;28;19924;-70
2022/04/30 12:39:20;;;;;;;;;;;;;;;;;;5004031;28;19956;-71
2022/04/30 12:41:46;;;;;;;;;;;;;;;;;;5004085;28;20017;-70
2022/04/30 12:44:11;;;;;;;;;;;;;;;;;;5004668;28;19937;-71
2022/04/30 12:46:41;;;;;;;;;;;;;;;;;;5005769;28;20007;-70
2022/04/30 12:49:06;;;;;;;;;;;;;;;;;;5006717;28;19918;-70
2022/04/30 12:51:32;;;;;;;;;;;;;;;;;;5004339;28;20274;-71
2022/04/30 12:53:58;;;;;;;;;;;;;;;;;;5005319;28;19991;-70
2022/04/30 12:56:24;;;;;;;;;;;;;;;;;;5003330;28;19925;-70
2022/04/30 12:58:49;;;;;;;;;;;;;;;;;;5006626;28;19929;-71
2022/04/30 13:01:15;;;;;;;;;;;;;;;;;;5004380;28;19918;-70
2022/04/30 13:03:41;;;;;;;;;;;;;;;;;;4986934;28;19921;-69
2022/04/30 13:06:06;;;;;;;;;;;;;;;;;;5004578;28;20332;-70
2022/04/30 13:14:00;;;;;;;;;;;;;;;;;;5006726;28;20380;-71
2022/04/30 13:16:25;;;;;;;;;;;;;;;;;;5003415;28;19918;-70
2022/04/30 13:18:51;;;;;;;;;;;;;;;;;;5003183;28;19918;-70
2022/04/30 13:21:16;;;;;;;;;;;;;;;;;;5004459;28;19956;-70
2022/04/30 13:23:42;;;;;;;;;;;;;;;;;;5009734;28;19917;-70
2022/04/30 13:26:08;;;;;;;;;;;;;;;;;;5000904;28;19921;-70
2022/04/30 13:28:33;;;;;;;;;;;;;;;;;;4994920;28;19979;-71
2022/04/30 13:30:59;;;;;;;;;;;;;;;;;;5004686;28;20020;-70
2022/04/30 13:33:24;;;;;;;;;;;;;;;;;;5004783;28;20925;-70
2022/04/30 13:35:50;;;;;;;;;;;;;;;;;;5001729;28;19921;-70
2022/04/30 13:38:16;;;;;;;;;;;;;;;;;;5000952;28;20521;-70
2022/04/30 13:40:41;;;;;;;;;;;;;;;;;;4994675;28;20452;-70
2022/04/30 13:43:07;;;;;;;;;;;;;;;;;;4999166;28;19918;-70
2022/04/30 13:45:33;;;;;;;;;;;;;;;;;;5006702;28;19917;-70
2022/04/30 13:47:58;;;;;;;;;;;;;;;;;;5001870;28;19971;-70
2022/04/30 13:50:24;;;;;;;;;;;;;;;;;;4996226;28;20596;-70
2022/04/30 13:52:50;;;;;;;;;;;;;;;;;;5003949;28;20400;-70
2022/04/30 13:55:15;;;;;;;;;;;;;;;;;;5002534;28;19917;-70
2022/04/30 13:57:41;;;;;;;;;;;;;;;;;;5003033;28;19925;-70
2022/04/30 14:00:10;;;;;;;;;;;;;;;;;;4999761;28;19921;-70
2022/04/30 14:02:38;;;;;;;;;;;;;;;;;;5005811;28;19940;-70
2022/04/30 14:05:04;;;;;;;;;;;;;;;;;;4990694;28;19922;-70
2022/04/30 14:07:29;;;;;;;;;;;;;;;;;;4980521;28;19980;-70
2022/04/30 14:09:55;;;;;;;;;;;;;;;;;;5001158;28;19944;-69
2022/04/30 14:12:20;;;;;;;;;;;;;;;;;;5005489;28;19917;-70
2022/04/30 14:14:58;;;;;;;;;;;;;;;;;;5002605;28;19943;-69
2022/04/30 14:20:12;;;;;;;;;;;;;;;;;;5004093;28;20013;-69
2022/04/30 14:22:38;;;;;;;;;;;;;;;;;;5001856;28;19952;-70
2022/04/30 14:25:06;;;;;;;;;;;;;;;;;;5001417;28;19918;-70
2022/04/30 14:27:32;;;;;;;;;;;;;;;;;;5004486;28;19922;-69
2022/04/30 14:29:57;;;;;;;;;;;;;;;;;;4996067;28;19921;-69
2022/04/30 14:32:23;;;;;;;;;;;;;;;;;;5002115;28;20265;-69
2022/04/30 14:34:48;;;;;;;;;;;;;;;;;;5001478;28;20008;-69
2022/04/30 14:37:14;;;;;;;;;;;;;;;;;;4993162;28;19940;-69
2022/04/30 14:39:43;;;;;;;;;;;;;;;;;;4998855;28;19924;-69
2022/04/30 14:42:09;;;;;;;;;;;;;;;;;;5002720;28;19928;-70
2022/04/30 14:44:35;;;;;;;;;;;;;;;;;;5005041;28;19925;-69
2022/04/30 14:47:02;;;;;;;;;;;;;;;;;;5001149;28;20018;-69
2022/04/30 14:49:28;;;;;;;;;;;;;;;;;;5004039;28;19924;-69
2022/04/30 14:51:53;;;;;;;;;;;;;;;;;;5006010;28;19917;-69
2022/04/30 14:54:19;;;;;;;;;;;;;;;;;;5001124;28;19925;-70
2022/04/30 14:56:46;;;;;;;;;;;;;;;;;;4993436;28;19964;-70
2022/04/30 14:59:12;;;;;;;;;;;;;;;;;;5004447;28;19929;-70
2022/04/30 15:01:37;;;;;;;;;;;;;;;;;;4995838;28;19918;-70
2022/04/30 15:04:03;;;;;;;;;;;;;;;;;;5006530;28;19921;-69
2022/04/30 15:06:28;;;;;;;;;;;;;;;;;;4985838;28;19917;-70
2022/04/30 15:08:56;;;;;;;;;;;;;;;;;;4998681;28;19922;-70
2022/04/30 15:11:22;;;;;;;;;;;;;;;;;;4980453;28;19917;-70
2022/04/30 15:13:48;;;;;;;;;;;;;;;;;;4997401;28;20491;-69
2022/04/30 15:16:13;;;;;;;;;;;;;;;;;;4986706;28;19918;-69
2022/04/30 15:18:39;;;;;;;;;;;;;;;;;;4984997;28;20028;-69
2022/04/30 15:21:04;;;;;;;;;;;;;;;;;;5001260;28;20388;-69
2022/04/30 15:23:30;;;;;;;;;;;;;;;;;;4988260;28;19918;-69
2022/04/30 15:25:55;;;;;;;;;;;;;;;;;;5002907;28;19983;-70
2022/04/30 15:28:21;;;;;;;;;;;;;;;;;;5005744;28;19972;-70
2022/04/30 15:30:47;;;;;;;;;;;;;;;;;;5003632;28;19918;-70
2022/04/30 15:33:13;;;;;;;;;;;;;;;;;;4999220;28;19917;-69
2022/04/30 15:35:38;;;;;;;;;;;;;;;;;;5002416;28;20403;-69
2022/04/30 15:38:04;;;;;;;;;;;;;;;;;;5006748;28;19918;-70
2022/04/30 15:40:30;;;;;;;;;;;;;;;;;;5012668;28;20555;-69
2022/04/30 15:42:56;;;;;;;;;;;;;;;;;;5007856;28;19963;-70
2022/04/30 15:45:21;;;;;;;;;;;;;;;;;;5008743;28;20328;-69
2022/04/30 15:53:47;;;;;;;;;;;;;;;;;;5004475;28;19976;-69
2022/04/30 15:56:03;;;;;;;;;;;;;;;;;;4995457;28;19922;-69
2022/04/30 15:58:28;;;;;;;;;;;;;;;;;;5004563;28;19964;-70
2022/04/30 16:00:54;;;;;;;;;;;;;;;;;;5001076;28;19925;-69
2022/04/30 16:03:19;;;;;;;;;;;;;;;;;;5011035;23;19964;-67
2022/04/30 16:05:45;;;;;;;;;;;;;;;;;;5006904;28;19930;-67
2022/04/30 16:08:11;;;;;;;;;;;;;;;;;;5001937;28;19921;-67
2022/04/30 16:10:37;;;;;;;;;;;;;;;;;;5005487;28;19917;-66
2022/04/30 16:13:02;;;;;;;;;;;;;;;;;;5003071;28;20462;-67
2022/04/30 16:15:28;;;;;;;;;;;;;;;;;;4994020;28;19924;-67
2022/04/30 16:17:54;;;;;;;;;;;;;;;;;;4987588;28;19922;-68
2022/04/30 16:20:19;;;;;;;;;;;;;;;;;;4998796;28;19959;-67
2022/04/30 16:22:45;;;;;;;;;;;;;;;;;;4988392;28;19926;-65
2022/04/30 16:25:11;;;;;;;;;;;;;;;;;;5003323;28;19933;-67
2022/04/30 16:27:37;;;;;;;;;;;;;;;;;;5008612;28;20626;-68
2022/04/30 16:30:10;;;;;;;;;;;;;;;;;;5007829;28;20007;-67
2022/04/30 16:32:39;;;;;;;;;;;;;;;;;;5010268;28;20001;-67
2022/04/30 16:35:04;;;;;;;;;;;;;;;;;;5008101;28;19921;-66
2022/04/30 16:37:30;;;;;;;;;;;;;;;;;;5004402;28;20405;-67
2022/04/30 16:39:55;;;;;;;;;;;;;;;;;;5009720;28;20612;-67
2022/04/30 16:42:21;;;;;;;;;;;;;;;;;;5011123;28;20496;-67
2022/04/30 16:44:48;;;;;;;;;;;;;;;;;;4984926;28;19921;-67
2022/04/30 16:47:15;;;;;;;;;;;;;;;;;;5008886;28;19948;-67
2022/04/30 16:49:40;;;;;;;;;;;;;;;;;;5009849;28;19918;-67
2022/04/30 16:52:22;;;;;;;;;;;;;;;;;;5008194;28;19924;-65
2022/04/30 16:57:37;;;;;;;;;;;;;;;;;;5001790;28;19924;-67
2022/04/30 17:00:10;;;;;;;;;;;;;;;;;;5011538;28;19918;-67
2022/04/30 17:02:39;;;;;;;;;;;;;;;;;;5004762;28;19921;-66
2022/04/30 17:05:05;;;;;;;;;;;;;;;;;;5015792;28;19921;-67
2022/04/30 17:07:33;;;;;;;;;;;;;;;;;;5009064;28;19925;-67
2022/04/30 17:09:59;;;;;;;;;;;;;;;;;;5008650;28;20404;-66
2022/04/30 17:12:25;;;;;;;;;;;;;;;;;;5015123;28;20502;-67
2022/04/30 17:14:50;;;;;;;;;;;;;;;;;;5008388;28;19921;-67
2022/04/30 17:17:16;;;;;;;;;;;;;;;;;;5007050;28;20574;-67
2022/04/30 17:19:41;;;;;;;;;;;;;;;;;;5003377;28;19925;-67
2022/04/30 17:22:07;;;;;;;;;;;;;;;;;;5008629;28;19921;-67
2022/04/30 17:24:32;;;;;;;;;;;;;;;;;;5007523;28;19928;-66
2022/04/30 17:27:00;;;;;;;;;;;;;;;;;;5006076;28;19921;-67
2022/04/30 17:29:26;;;;;;;;;;;;;;;;;;5002377;28;20351;-67
2022/04/30 17:40:05;;;;;;;;;;;;;;;;;;5004760;28;19922;-67
2022/04/30 17:42:32;;;;;;;;;;;;;;;;;;5010866;28;19968;-67
2022/04/30 17:44:57;;;;;;;;;;;;;;;;;;5003526;28;19933;-67
2022/04/30 17:47:23;;;;;;;;;;;;;;;;;;5005110;28;19925;-66
2022/04/30 17:49:49;;;;;;;;;;;;;;;;;;5012041;28;19925;-67
2022/04/30 17:52:15;;;;;;;;;;;;;;;;;;4989229;28;19918;-66
2022/04/30 17:54:41;;;;;;;;;;;;;;;;;;4997404;28;20000;-67
2022/04/30 17:57:09;;;;;;;;;;;;;;;;;;5003882;28;20060;-67